.
WxDataArchive / Data Records for 2013-01-05
2013-01-04 January 2013 2013-01-06

Data Records for Saturday, 05 January 2013

Time	Temp	Chill	HIndex	Humid	Dewpt	 Wind 	HiWind	WindDir	Rain 	Barom 
-----	----	-----	------	-----	-----	------	------	-------	-----	----- 
00:00	25.3	25.3	25.3	80	20.0	2	6	248	0.00	30.282 
00:05	25.3	25.3	25.3	80	20.0	2	5	248	0.00	30.282 
00:10	25.3	25.3	25.3	80	20.0	2	5	248	0.00	30.282 
00:15	25.3	25.3	25.3	79	19.7	2	4	248	0.00	30.278 
00:20	25.3	25.3	25.3	79	19.7	1	4	248	0.00	30.278 
00:25	25.3	25.3	25.3	79	19.7	2	6	248	0.00	30.278 
00:30	25.3	25.3	25.3	79	19.7	1	4	248	0.00	30.280 
00:35	25.3	25.3	25.3	79	19.7	1	5	248	0.00	30.280 
00:40	25.1	25.1	25.1	79	19.5	1	5	248	0.00	30.280 
00:45	25.1	25.1	25.1	79	19.5	1	4	248	0.00	30.285 
00:50	25.0	25.0	25.0	79	19.4	0	3	248	0.00	30.285 
00:55	24.8	24.8	24.8	79	19.2	0	4	248	0.00	30.285 
01:00	24.7	24.7	24.7	79	19.1	1	3	248	0.00	30.291 
01:05	24.4	24.4	24.4	79	18.8	1	4	248	0.00	30.291 
01:10	24.2	24.2	24.2	79	18.6	1	3	248	0.00	30.291 
01:15	24.1	24.1	24.1	79	18.5	1	5	248	0.00	30.288 
01:20	24.1	24.1	24.1	79	18.5	2	5	248	0.00	30.288 
01:25	24.1	24.1	24.1	79	18.5	2	7	248	0.00	30.288 
01:30	24.1	24.1	24.1	79	18.5	1	4	248	0.00	30.289 
01:35	23.9	23.9	23.9	79	18.4	2	5	248	0.00	30.289 
01:40	23.8	23.8	23.8	79	18.3	1	3	248	0.00	30.289 
01:45	23.6	23.6	23.6	79	18.1	1	4	248	0.00	30.288 
01:50	23.6	23.6	23.6	79	18.1	1	5	248	0.00	30.288 
01:55	23.5	23.5	23.5	79	18.0	1	3	248	0.00	30.288 
02:00	23.3	23.3	23.3	79	17.8	1	3	248	0.00	30.289 
02:05	23.2	23.2	23.2	80	18.0	1	3	248	0.00	30.289 
02:10	23.2	23.2	23.2	80	18.0	1	3	248	0.00	30.289 
02:15	23.0	23.0	23.0	80	17.8	1	4	248	0.00	30.288 
02:20	22.9	22.9	22.9	80	17.7	1	3	248	0.00	30.288 
02:25	22.9	22.9	22.9	80	17.7	1	3	248	0.00	30.288 
02:30	22.7	22.7	22.7	80	17.5	0	3	248	0.00	30.288 
02:35	22.5	22.5	22.5	80	17.3	1	3	248	0.00	30.288 
02:40	22.5	22.5	22.5	81	17.6	1	3	248	0.00	30.288 
02:45	22.5	22.5	22.5	81	17.6	1	3	248	0.00	30.292 
02:50	22.4	22.4	22.4	81	17.5	1	4	248	0.00	30.292 
02:55	22.4	22.4	22.4	81	17.5	1	2	248	0.00	30.292 
03:00	22.4	22.4	22.4	81	17.5	0	3	248	0.00	30.290 
03:05	22.2	22.2	22.2	81	17.3	1	3	248	0.00	30.290 
03:10	22.1	22.1	22.1	81	17.2	0	1	248	0.00	30.290 
03:15	21.9	21.9	21.9	81	17.0	0	1	248	0.00	30.288 
03:20	21.9	21.9	21.9	81	17.0	0	1	248	0.00	30.288 
03:25	21.8	21.8	21.8	81	16.9	0	2	248	0.00	30.288 
03:30	21.8	21.8	21.8	82	17.2	1	3	248	0.00	30.294 
03:35	21.8	21.8	21.8	82	17.2	1	2	248	0.00	30.294 
03:40	21.8	21.8	21.8	82	17.2	0	2	248	0.00	30.294 
03:45	21.6	21.6	21.6	82	17.0	1	3	248	0.00	30.306 
03:50	21.6	21.6	21.6	82	17.0	0	2	248	0.00	30.306 
03:55	21.4	21.4	21.4	82	16.8	0	2	248	0.00	30.306 
04:00	21.4	21.4	21.4	82	16.8	1	3	248	0.00	30.308 
04:05	21.6	21.6	21.6	83	17.3	1	4	248	0.00	30.308 
04:10	21.6	21.6	21.6	83	17.3	1	3	248	0.00	30.308 
04:15	21.8	21.8	21.8	83	17.4	1	3	248	0.00	30.307 
04:20	21.8	21.8	21.8	83	17.4	0	3	248	0.00	30.307 
04:25	21.6	21.6	21.6	83	17.3	1	4	248	0.00	30.307 
04:30	21.8	21.8	21.8	83	17.4	0	3	248	0.00	30.304 
04:35	21.8	21.8	21.8	83	17.4	0	3	248	0.00	30.304 
04:40	21.8	21.8	21.8	83	17.4	1	3	248	0.00	30.304 
04:45	21.9	21.9	21.9	83	17.5	1	3	248	0.00	30.305 
04:50	21.9	21.9	21.9	83	17.5	1	3	248	0.00	30.305 
04:55	21.9	21.9	21.9	82	17.3	1	4	248	0.00	30.305 
05:00	21.9	21.9	21.9	82	17.3	1	3	248	0.00	30.307 
05:05	21.9	21.9	21.9	82	17.3	1	4	248	0.00	30.307 
05:10	22.1	22.1	22.1	82	17.5	1	5	248	0.00	30.307 
05:15	22.2	22.2	22.2	82	17.6	1	5	248	0.00	30.304 
05:20	22.2	22.2	22.2	82	17.6	1	4	248	0.00	30.304 
05:25	22.2	22.2	22.2	82	17.6	0	2	248	0.00	30.304 
05:30	22.2	22.2	22.2	82	17.6	1	4	248	0.00	30.299 
05:35	22.1	22.1	22.1	82	17.5	1	3	248	0.00	30.299 
05:40	22.1	22.1	22.1	82	17.5	1	3	248	0.00	30.299 
05:45	22.1	22.1	22.1	82	17.5	0	2	248	0.00	30.303 
05:50	21.9	21.9	21.9	82	17.3	0	2	248	0.00	30.303 
05:55	21.9	21.9	21.9	82	17.3	0	2	248	0.00	30.303 
06:00	21.8	21.8	21.8	82	17.2	0	2	248	0.00	30.304 
06:05	21.8	21.8	21.8	82	17.2	0	1	248	0.00	30.304 
06:10	21.6	21.6	21.6	82	17.0	0	1	248	0.00	30.304 
06:15	21.4	21.4	21.4	82	16.8	0	1	248	0.00	30.307 
06:20	21.3	21.3	21.3	82	16.7	0	0	---	0.00	30.307 
06:25	21.0	21.0	21.0	82	16.4	0	0	---	0.00	30.307 
06:30	20.8	20.8	20.8	82	16.2	0	0	---	0.00	30.308 
06:35	20.6	20.6	20.6	82	16.0	0	0	---	0.00	30.308 
06:40	20.3	20.3	20.3	82	15.7	0	0	---	0.00	30.308 
06:45	20.0	20.0	20.0	82	15.4	0	0	---	0.00	30.321 
06:50	19.9	19.9	19.9	82	15.3	0	1	248	0.00	30.321 
06:55	19.9	19.9	19.9	83	15.6	0	1	248	0.00	30.321 
07:00	19.9	19.9	19.9	83	15.6	0	1	248	0.00	30.317 
07:05	19.7	19.7	19.7	83	15.4	0	0	---	0.00	30.317 
07:10	19.7	19.7	19.7	84	15.7	0	0	---	0.00	30.317 
07:15	19.5	19.5	19.5	84	15.5	0	0	---	0.00	30.311 
07:20	19.4	19.4	19.4	84	15.4	0	0	---	0.00	30.311 
07:25	19.2	19.2	19.2	84	15.2	0	0	---	0.00	30.311 
07:30	19.2	19.2	19.2	84	15.2	0	0	---	0.00	30.305 
07:35	19.1	19.1	19.1	84	15.1	0	0	---	0.00	30.305 
07:40	18.9	18.9	18.9	84	14.9	0	0	---	0.00	30.305 
07:45	18.8	18.8	18.8	84	14.8	0	0	---	0.00	30.304 
07:50	18.8	18.8	18.8	85	15.1	0	0	---	0.00	30.304 
07:55	18.6	18.6	18.6	85	14.9	0	0	---	0.00	30.304 
08:00	18.4	18.4	18.4	85	14.7	0	0	---	0.00	30.306 
08:05	18.3	18.3	18.3	85	14.6	0	0	---	0.00	30.306 
08:10	18.1	18.1	18.1	85	14.4	0	0	---	0.00	30.306 
08:15	18.3	18.3	18.3	86	14.8	0	0	---	0.00	30.310 
08:20	18.3	18.3	18.3	86	14.8	0	0	---	0.00	30.310 
08:25	18.3	18.3	18.3	86	14.8	0	0	---	0.00	30.310 
08:30	18.4	18.4	18.4	86	14.9	0	1	248	0.00	30.309 
08:35	18.8	18.8	18.8	87	15.6	0	0	---	0.00	30.309 
08:40	19.1	19.1	19.1	87	15.9	0	1	248	0.00	30.309 
08:45	19.2	19.2	19.2	87	16.0	0	1	248	0.00	30.311 
08:50	19.4	19.4	19.4	87	16.2	0	1	248	0.00	30.311 
08:55	19.7	19.7	19.7	87	16.5	0	1	248	0.00	30.311 
09:00	20.2	20.2	20.2	87	17.0	0	1	248	0.00	30.312 
09:05	20.5	20.5	20.5	87	17.3	0	1	248	0.00	30.312 
09:10	20.8	20.8	20.8	86	17.3	0	1	248	0.00	30.312 
09:15	21.3	21.3	21.3	86	17.8	0	2	248	0.00	30.308 
09:20	21.6	21.6	21.6	86	18.1	0	3	248	0.00	30.308 
09:25	22.1	22.1	22.1	85	18.3	0	4	248	0.00	30.308 
09:30	22.5	22.5	22.5	85	18.7	0	2	248	0.00	30.310 
09:35	22.9	22.9	22.9	84	18.8	0	1	248	0.00	30.310 
09:40	23.3	23.3	23.3	84	19.2	0	1	248	0.00	30.310 
09:45	23.6	23.6	23.6	83	19.2	0	1	248	0.00	30.304 
09:50	24.1	24.1	24.1	82	19.4	0	2	248	0.00	30.304 
09:55	24.4	24.4	24.4	81	19.4	0	1	248	0.00	30.304 
10:00	24.7	24.7	24.7	81	19.7	1	4	248	0.00	30.306 
10:05	25.0	25.0	25.0	80	19.7	0	3	248	0.00	30.306 
10:10	25.1	25.1	25.1	80	19.8	0	2	248	0.00	30.306 
10:15	25.4	25.4	25.4	79	19.8	1	4	248	0.00	30.309 
10:20	25.8	25.8	25.8	78	19.9	1	6	248	0.00	30.309 
10:25	26.1	26.1	26.1	77	19.9	1	3	248	0.00	30.309 
10:30	26.4	26.4	26.4	77	20.2	1	3	248	0.00	30.304 
10:35	26.7	26.7	26.7	76	20.2	1	3	248	0.00	30.304 
10:40	27.0	27.0	27.0	75	20.2	0	3	248	0.00	30.304 
10:45	27.3	27.3	27.3	75	20.4	0	1	248	0.00	30.300 
10:50	27.6	27.6	27.6	74	20.4	1	3	248	0.00	30.300 
10:55	27.9	27.9	27.9	73	20.4	0	2	248	0.00	30.300 
11:00	28.4	28.4	28.4	73	20.9	0	3	248	0.00	30.299 
11:05	28.7	28.7	28.7	72	20.8	0	2	248	0.00	30.299 
11:10	29.1	29.1	29.1	72	21.2	0	1	248	0.00	30.299 
11:15	29.4	29.4	29.4	70	20.8	0	2	248	0.00	30.285 
11:20	29.8	29.8	29.8	70	21.2	0	3	248	0.00	30.285 
11:25	29.8	29.8	29.8	69	20.9	2	4	90	0.00	30.285 
11:30	29.8	29.8	29.8	69	20.9	1	3	90	0.00	30.274 
11:35	29.8	29.8	29.8	69	20.9	0	2	90	0.00	30.274 
11:40	29.8	29.8	29.8	69	20.9	1	3	90	0.00	30.274 
11:45	30.0	30.0	30.0	69	21.1	0	2	90	0.00	30.260 
11:50	30.1	30.1	30.1	69	21.2	0	2	90	0.00	30.260 
11:55	30.4	30.4	30.4	68	21.1	0	2	90	0.00	30.260 
12:00	30.7	30.7	30.7	67	21.1	0	1	90	0.00	30.255 
12:05	30.7	30.7	30.7	67	21.1	1	4	90	0.00	30.255 
12:10	30.9	30.9	30.9	67	21.3	1	4	112	0.00	30.255 
12:15	30.9	30.9	30.9	67	21.3	1	3	248	0.00	30.257 
12:20	30.9	30.9	30.9	67	21.3	0	3	248	0.00	30.257 
12:25	31.2	31.2	31.2	67	21.5	1	4	248	0.00	30.257 
12:30	31.3	31.3	31.3	66	21.3	1	3	0	0.00	30.250 
12:35	31.5	31.5	31.5	67	21.8	0	2	315	0.00	30.250 
12:40	31.6	31.6	31.6	66	21.6	1	4	90	0.00	30.250 
12:45	31.9	31.9	31.9	66	21.9	1	3	248	0.00	30.236 
12:50	32.4	32.4	32.4	66	22.3	0	2	248	0.00	30.236 
12:55	32.5	32.5	32.5	65	22.1	1	3	248	0.00	30.236 
13:00	32.5	32.5	32.5	65	22.1	1	3	248	0.00	30.215 
13:05	32.5	32.5	32.5	65	22.1	1	5	135	0.00	30.215 
13:10	32.7	32.7	32.7	66	22.6	0	3	112	0.00	30.215 
13:15	32.8	32.8	32.8	65	22.3	1	4	112	0.00	30.205 
13:20	32.8	32.8	32.8	66	22.7	0	2	112	0.00	30.205 
13:25	32.9	32.9	32.9	66	22.8	1	4	248	0.00	30.205 
13:30	33.2	33.2	33.2	65	22.7	1	4	248	0.00	30.197 
13:35	33.4	33.4	33.4	66	23.3	1	2	248	0.00	30.197 
13:40	33.4	33.4	33.4	66	23.3	1	2	248	0.00	30.197 
13:45	33.5	33.5	33.5	65	23.0	1	3	248	0.00	30.190 
13:50	33.8	33.8	33.8	66	23.7	0	3	248	0.00	30.190 
13:55	34.1	34.1	34.1	65	23.6	1	4	248	0.00	30.190 
14:00	34.3	34.3	34.3	65	23.8	0	3	248	0.00	30.187 
14:05	34.6	34.6	34.6	65	24.1	0	2	248	0.00	30.187 
14:10	34.7	34.7	34.7	65	24.2	1	5	248	0.00	30.187 
14:15	34.9	34.9	34.9	64	24.0	1	4	248	0.00	30.175 
14:20	35.0	35.0	35.0	64	24.1	1	3	248	0.00	30.175 
14:25	35.3	35.3	35.3	63	24.0	1	4	248	0.00	30.175 
14:30	35.2	35.2	35.2	63	23.9	1	5	248	0.00	30.173 
14:35	34.9	34.9	34.9	63	23.6	0	3	248	0.00	30.173 
14:40	34.6	34.6	34.6	64	23.7	1	4	248	0.00	30.173 
14:45	34.3	34.3	34.3	64	23.4	1	5	248	0.00	30.170 
14:50	34.1	34.1	34.1	65	23.6	2	5	248	0.00	30.170 
14:55	34.0	34.0	34.0	65	23.5	1	7	248	0.00	30.170 
15:00	34.0	34.0	34.0	65	23.5	1	5	248	0.00	30.170 
15:05	33.8	33.8	33.8	65	23.3	1	5	248	0.00	30.170 
15:10	33.7	33.7	33.7	66	23.6	1	5	225	0.00	30.170 
15:15	33.8	33.8	33.8	67	24.0	1	2	225	0.00	30.161 
15:20	34.0	34.0	34.0	67	24.2	1	3	225	0.00	30.161 
15:25	33.8	33.8	33.8	66	23.7	1	4	225	0.00	30.161 
15:30	33.8	33.8	33.8	67	24.0	1	4	248	0.00	30.172 
15:35	33.8	33.8	33.8	68	24.4	0	2	248	0.00	30.172 
15:40	33.8	33.8	33.8	68	24.4	1	5	248	0.00	30.172 
15:45	33.8	33.8	33.8	68	24.4	0	2	248	0.00	30.168 
15:50	33.8	33.8	33.8	68	24.4	1	3	248	0.00	30.168 
15:55	33.7	33.7	33.7	69	24.6	0	2	248	0.00	30.168 
16:00	33.7	33.7	33.7	69	24.6	0	3	248	0.00	30.155 
16:05	33.7	33.7	33.7	69	24.6	0	2	248	0.00	30.155 
16:10	33.7	33.7	33.7	70	25.0	0	3	248	0.00	30.155 
16:15	33.5	33.5	33.5	69	24.4	0	2	225	0.00	30.154 
16:20	33.5	33.5	33.5	69	24.4	1	3	225	0.00	30.154 
16:25	33.5	33.5	33.5	69	24.4	1	4	225	0.00	30.154 
16:30	33.5	33.5	33.5	69	24.4	1	3	248	0.00	30.141 
16:35	33.5	33.5	33.5	69	24.4	0	3	248	0.00	30.141 
16:40	33.5	33.5	33.5	69	24.4	1	5	248	0.00	30.141 
16:45	33.5	33.5	33.5	69	24.4	1	4	248	0.00	30.143 
16:50	33.5	33.5	33.5	69	24.4	1	4	248	0.00	30.143 
16:55	33.7	33.7	33.7	69	24.6	1	4	248	0.00	30.143 
17:00	33.7	33.7	33.7	69	24.6	1	4	248	0.00	30.142 
17:05	33.7	33.7	33.7	70	25.0	1	3	248	0.00	30.142 
17:10	33.7	33.7	33.7	70	25.0	1	5	248	0.00	30.142 
17:15	33.7	33.7	33.7	70	25.0	1	4	248	0.00	30.162 
17:20	33.7	33.7	33.7	70	25.0	1	5	248	0.00	30.162 
17:25	33.7	33.7	33.7	70	25.0	1	4	248	0.00	30.162 
17:30	33.8	33.8	33.8	70	25.1	1	6	248	0.00	30.162 
17:35	33.8	33.8	33.8	70	25.1	2	5	248	0.00	30.162 
17:40	34.0	34.0	34.0	72	25.9	3	6	248	0.00	30.162 
17:45	33.8	33.8	33.8	74	26.4	2	5	248	0.00	30.160 
17:50	33.7	33.7	33.7	77	27.3	2	9	248	0.00	30.160 
17:55	33.2	33.2	33.2	80	27.7	3	10	248	0.00	30.160 
18:00	32.9	32.9	32.9	83	28.3	1	4	248	0.00	30.158 
18:05	32.7	32.7	32.7	84	28.4	1	6	248	0.00	30.158 
18:10	32.5	32.5	32.5	85	28.5	1	4	248	0.00	30.158 
18:15	32.4	32.4	32.4	86	28.7	1	4	248	0.00	30.163 
18:20	32.2	32.2	32.2	87	28.8	1	4	248	0.00	30.163 
18:25	32.2	32.2	32.2	87	28.8	1	5	248	0.00	30.163 
18:30	32.2	32.2	32.2	88	29.1	1	3	248	0.00	30.160 
18:35	32.1	32.1	32.1	88	29.0	0	2	248	0.00	30.160 
18:40	32.1	32.1	32.1	88	29.0	1	2	248	0.00	30.160 
18:45	32.1	32.1	32.1	89	29.2	1	2	248	0.00	30.157 
18:50	32.1	32.1	32.1	89	29.2	1	3	248	0.00	30.157 
18:55	32.1	32.1	32.1	89	29.2	1	3	248	0.00	30.157 
19:00	32.1	32.1	32.1	90	29.5	1	4	248	0.00	30.157 
19:05	32.1	32.1	32.1	90	29.5	1	4	248	0.00	30.157 
19:10	32.2	32.2	32.2	90	29.6	0	3	248	0.00	30.157 
19:15	32.2	32.2	32.2	90	29.6	1	3	248	0.00	30.153 
19:20	32.2	32.2	32.2	90	29.6	0	3	248	0.00	30.153 
19:25	32.2	32.2	32.2	90	29.6	1	4	248	0.00	30.153 
19:30	32.2	32.2	32.2	90	29.6	0	2	248	0.00	30.149 
19:35	32.2	32.2	32.2	90	29.6	0	2	248	0.00	30.149 
19:40	32.2	32.2	32.2	91	29.9	0	3	248	0.00	30.149 
19:45	32.2	32.2	32.2	91	29.9	0	3	248	0.00	30.148 
19:50	32.2	32.2	32.2	91	29.9	1	3	225	0.00	30.148 
19:55	32.1	32.1	32.1	91	29.8	1	3	248	0.00	30.148 
20:00	32.1	32.1	32.1	91	29.8	1	3	248	0.00	30.144 
20:05	31.9	31.9	31.9	90	29.3	1	3	248	0.00	30.144 
20:10	31.8	31.8	31.8	90	29.2	1	4	225	0.00	30.144 
20:15	31.6	31.6	31.6	90	29.0	1	4	225	0.00	30.143 
20:20	31.6	31.6	31.6	90	29.0	1	4	225	0.00	30.143 
20:25	31.5	31.5	31.5	90	28.9	0	2	248	0.00	30.143 
20:30	31.5	31.5	31.5	90	28.9	0	3	248	0.00	30.145 
20:35	31.5	31.5	31.5	90	28.9	0	2	248	0.00	30.145 
20:40	31.5	31.5	31.5	90	28.9	1	4	248	0.00	30.145 
20:45	31.6	31.6	31.6	91	29.3	1	4	248	0.00	30.144 
20:50	31.8	31.8	31.8	91	29.5	1	5	225	0.00	30.144 
20:55	31.8	31.8	31.8	91	29.5	2	6	248	0.00	30.144 
21:00	31.9	31.9	31.9	90	29.3	1	3	248	0.00	30.145 
21:05	31.9	31.9	31.9	90	29.3	1	3	248	0.00	30.145 
21:10	31.9	31.9	31.9	90	29.3	1	4	248	0.00	30.145 
21:15	32.1	32.1	32.1	90	29.5	1	3	225	0.00	30.127 
21:20	32.1	32.1	32.1	91	29.8	0	2	225	0.00	30.127 
21:25	32.1	32.1	32.1	91	29.8	0	2	225	0.00	30.127 
21:30	31.9	31.9	31.9	91	29.6	0	2	225	0.00	30.123 
21:35	31.9	31.9	31.9	91	29.6	0	2	225	0.00	30.123 
21:40	32.1	32.1	32.1	91	29.8	1	2	225	0.00	30.123 
21:45	32.1	32.1	32.1	91	29.8	1	3	225	0.00	30.122 
21:50	32.1	32.1	32.1	91	29.8	1	2	248	0.00	30.122 
21:55	32.2	32.2	32.2	90	29.6	1	3	248	0.00	30.122 
22:00	32.1	32.1	32.1	90	29.5	1	5	248	0.00	30.118 
22:05	32.1	32.1	32.1	90	29.5	1	4	248	0.00	30.118 
22:10	32.1	32.1	32.1	90	29.5	1	4	248	0.00	30.118 
22:15	31.9	31.9	31.9	90	29.3	0	2	248	0.00	30.106 
22:20	32.1	32.1	32.1	90	29.5	1	3	248	0.00	30.106 
22:25	32.1	32.1	32.1	90	29.5	1	3	248	0.00	30.106 
22:30	32.2	32.2	32.2	90	29.6	1	5	248	0.00	30.109 
22:35	32.4	32.4	32.4	90	29.8	1	4	248	0.00	30.109 
22:40	32.4	32.4	32.4	90	29.8	1	4	248	0.00	30.109 
22:45	32.4	32.4	32.4	89	29.5	0	3	225	0.00	30.104 
22:50	32.2	32.2	32.2	89	29.3	1	4	248	0.00	30.104 
22:55	32.1	32.1	32.1	89	29.2	1	4	248	0.00	30.104 
23:00	32.1	32.1	32.1	89	29.2	1	3	248	0.00	30.102 
23:05	31.9	31.9	31.9	89	29.0	0	4	248	0.00	30.102 
23:10	31.8	31.8	31.8	89	28.9	1	3	248	0.00	30.102 
23:15	31.8	31.8	31.8	89	28.9	0	2	248	0.00	30.089 
23:20	31.6	31.6	31.6	89	28.7	0	3	248	0.00	30.089 
23:25	31.6	31.6	31.6	89	28.7	0	2	248	0.00	30.089 
23:30	31.8	31.8	31.8	89	28.9	1	4	248	0.00	30.089 
23:35	32.1	32.1	32.1	89	29.2	1	4	248	0.00	30.089 
23:40	32.2	32.2	32.2	89	29.3	1	5	248	0.00	30.089 
23:45	32.4	32.4	32.4	89	29.5	1	5	248	0.00	30.085 
23:50	32.5	32.5	32.5	88	29.3	1	4	248	0.00	30.085 
23:55	32.7	32.7	32.7	88	29.5	2	5	248	0.00	30.085 

CoCoRaHS
IN-AL-39
A2 Web Hosting
Creative Commons License
GoDaddy
search engine by freefind advanced

loaded 2018-11-15 03:06:46 • last modified 2010-11-18 10:43:29
Privacy PolicyDisclaimer
• wx.awcolley.com is powered by PmWiki v.2002016 •
• all content (unless otherwise noted) © 2018 A W Colley